sensor_id;sensor_type;location;lat;lon;timestamp;temperature;humidity
33863;DHT22;20158;51.436;-2.742;2022-08-21T00:01:51;20.70;54.50
33863;DHT22;20158;51.436;-2.742;2022-08-21T00:04:18;20.70;55.20
33863;DHT22;20158;51.436;-2.742;2022-08-21T00:06:44;20.60;54.50
33863;DHT22;20158;51.436;-2.742;2022-08-21T00:09:10;20.60;54.60
33863;DHT22;20158;51.436;-2.742;2022-08-21T00:11:38;20.50;54.50
33863;DHT22;20158;51.436;-2.742;2022-08-21T00:14:06;20.50;54.70
33863;DHT22;20158;51.436;-2.742;2022-08-21T00:16:33;20.40;54.50
33863;DHT22;20158;51.436;-2.742;2022-08-21T00:18:59;20.40;54.60
33863;DHT22;20158;51.436;-2.742;2022-08-21T00:21:27;20.40;54.70
33863;DHT22;20158;51.436;-2.742;2022-08-21T00:23:53;20.40;54.80
33863;DHT22;20158;51.436;-2.742;2022-08-21T00:26:19;20.30;54.70
33863;DHT22;20158;51.436;-2.742;2022-08-21T00:28:46;20.30;54.80
33863;DHT22;20158;51.436;-2.742;2022-08-21T00:31:15;20.30;54.90
33863;DHT22;20158;51.436;-2.742;2022-08-21T00:33:41;20.20;54.90
33863;DHT22;20158;51.436;-2.742;2022-08-21T00:36:07;20.20;55.00
33863;DHT22;20158;51.436;-2.742;2022-08-21T00:38:34;20.20;55.00
33863;DHT22;20158;51.436;-2.742;2022-08-21T00:41:02;20.20;55.10
33863;DHT22;20158;51.436;-2.742;2022-08-21T00:43:33;20.20;55.20
33863;DHT22;20158;51.436;-2.742;2022-08-21T00:46:00;20.10;55.10
33863;DHT22;20158;51.436;-2.742;2022-08-21T00:48:26;20.10;55.10
33863;DHT22;20158;51.436;-2.742;2022-08-21T00:51:03;20.10;55.30
33863;DHT22;20158;51.436;-2.742;2022-08-21T00:53:30;20.10;55.30
33863;DHT22;20158;51.436;-2.742;2022-08-21T00:55:58;20.10;55.40
33863;DHT22;20158;51.436;-2.742;2022-08-21T00:58:27;20.10;55.50
33863;DHT22;20158;51.436;-2.742;2022-08-21T01:00:56;20.00;55.40
33863;DHT22;20158;51.436;-2.742;2022-08-21T01:03:24;20.00;55.50
33863;DHT22;20158;51.436;-2.742;2022-08-21T01:05:52;20.00;55.60
33863;DHT22;20158;51.436;-2.742;2022-08-21T01:08:19;20.00;55.60
33863;DHT22;20158;51.436;-2.742;2022-08-21T01:10:46;19.90;55.50
33863;DHT22;20158;51.436;-2.742;2022-08-21T01:13:14;19.90;55.60
33863;DHT22;20158;51.436;-2.742;2022-08-21T01:15:44;19.90;55.70
33863;DHT22;20158;51.436;-2.742;2022-08-21T01:18:12;19.90;55.90
33863;DHT22;20158;51.436;-2.742;2022-08-21T01:23:11;19.80;55.80
33863;DHT22;20158;51.436;-2.742;2022-08-21T01:25:37;19.80;55.90
33863;DHT22;20158;51.436;-2.742;2022-08-21T01:28:11;19.80;55.90
33863;DHT22;20158;51.436;-2.742;2022-08-21T01:30:39;19.80;56.10
33863;DHT22;20158;51.436;-2.742;2022-08-21T01:33:05;19.80;56.10
33863;DHT22;20158;51.436;-2.742;2022-08-21T01:35:31;19.80;56.20
33863;DHT22;20158;51.436;-2.742;2022-08-21T01:37:57;19.80;56.30
33863;DHT22;20158;51.436;-2.742;2022-08-21T01:40:23;19.80;56.30
33863;DHT22;20158;51.436;-2.742;2022-08-21T01:42:49;19.80;56.40
33863;DHT22;20158;51.436;-2.742;2022-08-21T01:45:15;19.80;56.40
33863;DHT22;20158;51.436;-2.742;2022-08-21T01:47:44;19.80;56.40
33863;DHT22;20158;51.436;-2.742;2022-08-21T01:50:14;19.80;56.50
33863;DHT22;20158;51.436;-2.742;2022-08-21T01:52:40;19.70;56.40
33863;DHT22;20158;51.436;-2.742;2022-08-21T01:55:08;19.70;56.40
33863;DHT22;20158;51.436;-2.742;2022-08-21T01:57:35;19.70;56.50
33863;DHT22;20158;51.436;-2.742;2022-08-21T02:00:01;19.70;56.50
33863;DHT22;20158;51.436;-2.742;2022-08-21T02:02:38;19.70;56.60
33863;DHT22;20158;51.436;-2.742;2022-08-21T02:05:05;19.70;56.60
33863;DHT22;20158;51.436;-2.742;2022-08-21T02:07:43;19.70;56.70
33863;DHT22;20158;51.436;-2.742;2022-08-21T02:10:13;19.70;56.80
33863;DHT22;20158;51.436;-2.742;2022-08-21T02:12:39;19.70;56.80
33863;DHT22;20158;51.436;-2.742;2022-08-21T02:15:06;19.70;56.80
33863;DHT22;20158;51.436;-2.742;2022-08-21T02:17:41;19.70;56.90
33863;DHT22;20158;51.436;-2.742;2022-08-21T02:20:08;19.70;57.00
33863;DHT22;20158;51.436;-2.742;2022-08-21T02:22:36;19.60;56.90
33863;DHT22;20158;51.436;-2.742;2022-08-21T02:25:03;19.60;56.90
33863;DHT22;20158;51.436;-2.742;2022-08-21T02:27:36;19.70;57.10
33863;DHT22;20158;51.436;-2.742;2022-08-21T02:30:03;19.60;57.10
33863;DHT22;20158;51.436;-2.742;2022-08-21T02:32:29;19.60;57.10
33863;DHT22;20158;51.436;-2.742;2022-08-21T02:34:55;19.60;57.10
33863;DHT22;20158;51.436;-2.742;2022-08-21T02:37:23;19.60;57.20
33863;DHT22;20158;51.436;-2.742;2022-08-21T02:39:49;19.60;57.20
33863;DHT22;20158;51.436;-2.742;2022-08-21T02:42:16;19.60;57.30
33863;DHT22;20158;51.436;-2.742;2022-08-21T02:44:42;19.70;57.50
33863;DHT22;20158;51.436;-2.742;2022-08-21T02:47:07;19.60;57.30
33863;DHT22;20158;51.436;-2.742;2022-08-21T02:49:33;19.60;57.40
33863;DHT22;20158;51.436;-2.742;2022-08-21T02:52:01;19.60;57.40
33863;DHT22;20158;51.436;-2.742;2022-08-21T02:54:28;19.60;57.40
33863;DHT22;20158;51.436;-2.742;2022-08-21T02:56:54;19.70;57.60
33863;DHT22;20158;51.436;-2.742;2022-08-21T02:59:20;19.70;57.60
33863;DHT22;20158;51.436;-2.742;2022-08-21T03:01:46;19.70;57.70
33863;DHT22;20158;51.436;-2.742;2022-08-21T03:04:12;19.70;57.70
33863;DHT22;20158;51.436;-2.742;2022-08-21T03:06:38;19.70;57.70
33863;DHT22;20158;51.436;-2.742;2022-08-21T03:09:04;19.70;57.70
33863;DHT22;20158;51.436;-2.742;2022-08-21T03:11:29;19.70;57.80
33863;DHT22;20158;51.436;-2.742;2022-08-21T03:13:56;19.70;57.80
33863;DHT22;20158;51.436;-2.742;2022-08-21T03:16:21;19.70;57.90
33863;DHT22;20158;51.436;-2.742;2022-08-21T03:18:47;19.60;57.70
33863;DHT22;20158;51.436;-2.742;2022-08-21T03:21:13;19.60;57.80
33863;DHT22;20158;51.436;-2.742;2022-08-21T03:23:40;19.60;57.80
33863;DHT22;20158;51.436;-2.742;2022-08-21T03:26:08;19.60;57.80
33863;DHT22;20158;51.436;-2.742;2022-08-21T03:28:34;19.60;57.80
33863;DHT22;20158;51.436;-2.742;2022-08-21T03:31:00;19.60;57.80
33863;DHT22;20158;51.436;-2.742;2022-08-21T03:33:27;19.60;57.90
33863;DHT22;20158;51.436;-2.742;2022-08-21T03:36:00;19.60;58.00
33863;DHT22;20158;51.436;-2.742;2022-08-21T03:38:28;19.60;58.10
33863;DHT22;20158;51.436;-2.742;2022-08-21T03:40:54;19.60;58.00
33863;DHT22;20158;51.436;-2.742;2022-08-21T03:43:20;19.50;57.90
33863;DHT22;20158;51.436;-2.742;2022-08-21T03:45:46;19.50;57.90
33863;DHT22;20158;51.436;-2.742;2022-08-21T03:48:12;19.50;58.00
33863;DHT22;20158;51.436;-2.742;2022-08-21T03:50:41;19.50;58.00
33863;DHT22;20158;51.436;-2.742;2022-08-21T03:53:08;19.50;58.10
33863;DHT22;20158;51.436;-2.742;2022-08-21T03:55:35;19.50;58.10
33863;DHT22;20158;51.436;-2.742;2022-08-21T03:58:02;19.50;58.10
33863;DHT22;20158;51.436;-2.742;2022-08-21T04:00:28;19.50;58.20
33863;DHT22;20158;51.436;-2.742;2022-08-21T04:02:54;19.50;58.20
33863;DHT22;20158;51.436;-2.742;2022-08-21T04:05:20;19.50;58.20
33863;DHT22;20158;51.436;-2.742;2022-08-21T04:07:57;19.50;58.20
33863;DHT22;20158;51.436;-2.742;2022-08-21T04:10:25;19.50;58.20
33863;DHT22;20158;51.436;-2.742;2022-08-21T04:12:52;19.50;58.20
33863;DHT22;20158;51.436;-2.742;2022-08-21T04:15:19;19.50;58.20
33863;DHT22;20158;51.436;-2.742;2022-08-21T04:17:46;19.50;58.30
33863;DHT22;20158;51.436;-2.742;2022-08-21T04:20:12;19.50;58.40
33863;DHT22;20158;51.436;-2.742;2022-08-21T04:22:38;19.50;58.40
33863;DHT22;20158;51.436;-2.742;2022-08-21T04:25:05;19.50;58.40
33863;DHT22;20158;51.436;-2.742;2022-08-21T04:27:31;19.50;58.40
33863;DHT22;20158;51.436;-2.742;2022-08-21T04:29:57;19.50;58.40
33863;DHT22;20158;51.436;-2.742;2022-08-21T04:32:24;19.50;58.50
33863;DHT22;20158;51.436;-2.742;2022-08-21T04:34:50;19.50;58.50
33863;DHT22;20158;51.436;-2.742;2022-08-21T04:37:16;19.50;58.50
33863;DHT22;20158;51.436;-2.742;2022-08-21T04:39:43;19.40;58.40
33863;DHT22;20158;51.436;-2.742;2022-08-21T04:42:09;19.50;58.70
33863;DHT22;20158;51.436;-2.742;2022-08-21T04:44:35;19.50;58.70
33863;DHT22;20158;51.436;-2.742;2022-08-21T04:47:02;19.50;58.70
33863;DHT22;20158;51.436;-2.742;2022-08-21T04:49:28;19.50;58.70
33863;DHT22;20158;51.436;-2.742;2022-08-21T04:51:54;19.50;58.70
33863;DHT22;20158;51.436;-2.742;2022-08-21T04:54:21;19.50;58.70
33863;DHT22;20158;51.436;-2.742;2022-08-21T04:56:59;19.50;58.80
33863;DHT22;20158;51.436;-2.742;2022-08-21T04:59:36;19.50;58.80
33863;DHT22;20158;51.436;-2.742;2022-08-21T05:02:05;19.50;58.80
33863;DHT22;20158;51.436;-2.742;2022-08-21T05:04:34;19.50;58.70
33863;DHT22;20158;51.436;-2.742;2022-08-21T05:07:04;19.50;58.70
33863;DHT22;20158;51.436;-2.742;2022-08-21T05:09:32;19.50;58.80
33863;DHT22;20158;51.436;-2.742;2022-08-21T05:11:58;19.50;58.80
33863;DHT22;20158;51.436;-2.742;2022-08-21T05:14:25;19.50;58.80
33863;DHT22;20158;51.436;-2.742;2022-08-21T05:16:52;19.50;58.90
33863;DHT22;20158;51.436;-2.742;2022-08-21T05:19:18;19.50;58.80
33863;DHT22;20158;51.436;-2.742;2022-08-21T05:21:47;19.50;58.90
33863;DHT22;20158;51.436;-2.742;2022-08-21T05:24:14;19.50;58.90
33863;DHT22;20158;51.436;-2.742;2022-08-21T05:26:40;19.50;58.90
33863;DHT22;20158;51.436;-2.742;2022-08-21T05:29:06;19.40;58.70
33863;DHT22;20158;51.436;-2.742;2022-08-21T05:31:32;19.40;58.80
33863;DHT22;20158;51.436;-2.742;2022-08-21T05:33:58;19.50;58.90
33863;DHT22;20158;51.436;-2.742;2022-08-21T05:36:24;19.50;58.90
33863;DHT22;20158;51.436;-2.742;2022-08-21T05:38:51;19.50;58.90
33863;DHT22;20158;51.436;-2.742;2022-08-21T05:41:17;19.50;58.90
33863;DHT22;20158;51.436;-2.742;2022-08-21T05:43:45;19.50;58.90
33863;DHT22;20158;51.436;-2.742;2022-08-21T05:46:11;19.50;59.00
33863;DHT22;20158;51.436;-2.742;2022-08-21T05:48:37;19.50;59.00
33863;DHT22;20158;51.436;-2.742;2022-08-21T05:51:06;19.50;58.90
33863;DHT22;20158;51.436;-2.742;2022-08-21T05:53:33;19.50;59.00
33863;DHT22;20158;51.436;-2.742;2022-08-21T05:55:58;19.50;59.00
33863;DHT22;20158;51.436;-2.742;2022-08-21T05:58:24;19.50;59.00
33863;DHT22;20158;51.436;-2.742;2022-08-21T06:00:51;19.40;58.80
33863;DHT22;20158;51.436;-2.742;2022-08-21T06:03:24;19.50;59.10
33863;DHT22;20158;51.436;-2.742;2022-08-21T06:05:52;19.40;59.00
33863;DHT22;20158;51.436;-2.742;2022-08-21T06:08:19;19.40;59.10
33863;DHT22;20158;51.436;-2.742;2022-08-21T06:10:47;19.40;59.20
33863;DHT22;20158;51.436;-2.742;2022-08-21T06:13:13;19.40;59.40
33863;DHT22;20158;51.436;-2.742;2022-08-21T06:15:40;19.40;59.60
33863;DHT22;20158;51.436;-2.742;2022-08-21T06:18:06;19.40;59.80
33863;DHT22;20158;51.436;-2.742;2022-08-21T06:20:32;19.50;60.00
33863;DHT22;20158;51.436;-2.742;2022-08-21T06:22:58;19.50;60.10
33863;DHT22;20158;51.436;-2.742;2022-08-21T06:25:24;19.40;60.00
33863;DHT22;20158;51.436;-2.742;2022-08-21T06:27:51;19.50;60.20
33863;DHT22;20158;51.436;-2.742;2022-08-21T06:30:18;19.40;60.10
33863;DHT22;20158;51.436;-2.742;2022-08-21T06:32:44;19.50;60.40
33863;DHT22;20158;51.436;-2.742;2022-08-21T06:35:10;19.50;60.40
33863;DHT22;20158;51.436;-2.742;2022-08-21T06:37:37;19.50;60.50
33863;DHT22;20158;51.436;-2.742;2022-08-21T06:40:04;19.50;60.50
33863;DHT22;20158;51.436;-2.742;2022-08-21T06:42:30;19.50;60.50
33863;DHT22;20158;51.436;-2.742;2022-08-21T06:44:57;19.50;60.50
33863;DHT22;20158;51.436;-2.742;2022-08-21T06:47:23;19.60;60.70
33863;DHT22;20158;51.436;-2.742;2022-08-21T06:49:49;19.60;60.70
33863;DHT22;20158;51.436;-2.742;2022-08-21T06:52:15;19.60;60.80
33863;DHT22;20158;51.436;-2.742;2022-08-21T06:54:41;19.60;60.80
33863;DHT22;20158;51.436;-2.742;2022-08-21T06:57:07;19.70;60.90
33863;DHT22;20158;51.436;-2.742;2022-08-21T06:59:33;19.70;60.90
33863;DHT22;20158;51.436;-2.742;2022-08-21T07:01:59;19.80;61.00
33863;DHT22;20158;51.436;-2.742;2022-08-21T07:04:25;19.90;61.00
33863;DHT22;20158;51.436;-2.742;2022-08-21T07:06:52;19.90;60.90
33863;DHT22;20158;51.436;-2.742;2022-08-21T07:09:18;20.00;60.90
33863;DHT22;20158;51.436;-2.742;2022-08-21T07:11:49;20.00;60.70
33863;DHT22;20158;51.436;-2.742;2022-08-21T07:14:16;20.10;60.90
33863;DHT22;20158;51.436;-2.742;2022-08-21T07:16:42;20.10;60.70
33863;DHT22;20158;51.436;-2.742;2022-08-21T07:19:07;20.10;60.60
33863;DHT22;20158;51.436;-2.742;2022-08-21T07:21:33;20.20;60.90
33863;DHT22;20158;51.436;-2.742;2022-08-21T07:23:59;20.20;60.70
33863;DHT22;20158;51.436;-2.742;2022-08-21T07:26:25;20.20;60.80
33863;DHT22;20158;51.436;-2.742;2022-08-21T07:28:52;20.20;60.80
33863;DHT22;20158;51.436;-2.742;2022-08-21T07:31:20;20.10;60.70
33863;DHT22;20158;51.436;-2.742;2022-08-21T07:33:47;20.10;60.70
33863;DHT22;20158;51.436;-2.742;2022-08-21T07:36:13;20.10;60.70
33863;DHT22;20158;51.436;-2.742;2022-08-21T07:38:39;20.10;60.70
33863;DHT22;20158;51.436;-2.742;2022-08-21T07:41:16;20.10;60.70
33863;DHT22;20158;51.436;-2.742;2022-08-21T07:43:42;20.10;60.70
33863;DHT22;20158;51.436;-2.742;2022-08-21T07:46:10;20.10;60.70
33863;DHT22;20158;51.436;-2.742;2022-08-21T07:48:37;20.20;60.90
33863;DHT22;20158;51.436;-2.742;2022-08-21T07:51:07;20.10;60.60
33863;DHT22;20158;51.436;-2.742;2022-08-21T07:53:34;20.20;60.80
33863;DHT22;20158;51.436;-2.742;2022-08-21T07:56:00;20.20;60.70
33863;DHT22;20158;51.436;-2.742;2022-08-21T07:58:26;20.30;60.80
33863;DHT22;20158;51.436;-2.742;2022-08-21T08:00:52;20.30;60.70
33863;DHT22;20158;51.436;-2.742;2022-08-21T08:03:17;20.30;60.70
33863;DHT22;20158;51.436;-2.742;2022-08-21T08:05:43;20.30;60.50
33863;DHT22;20158;51.436;-2.742;2022-08-21T08:08:09;20.40;60.60
33863;DHT22;20158;51.436;-2.742;2022-08-21T08:10:38;20.40;60.50
33863;DHT22;20158;51.436;-2.742;2022-08-21T08:13:04;20.50;60.50
33863;DHT22;20158;51.436;-2.742;2022-08-21T08:15:31;20.70;60.60
33863;DHT22;20158;51.436;-2.742;2022-08-21T08:17:57;20.90;60.50
33863;DHT22;20158;51.436;-2.742;2022-08-21T08:20:24;21.00;60.40
33863;DHT22;20158;51.436;-2.742;2022-08-21T08:22:52;21.10;60.30
33863;DHT22;20158;51.436;-2.742;2022-08-21T08:25:21;21.10;60.00
33863;DHT22;20158;51.436;-2.742;2022-08-21T08:27:47;21.20;60.00
33863;DHT22;20158;51.436;-2.742;2022-08-21T08:30:16;21.30;59.90
33863;DHT22;20158;51.436;-2.742;2022-08-21T08:32:42;21.40;59.90
33863;DHT22;20158;51.436;-2.742;2022-08-21T08:35:09;21.50;59.90
33863;DHT22;20158;51.436;-2.742;2022-08-21T08:37:36;21.50;59.70
33863;DHT22;20158;51.436;-2.742;2022-08-21T08:40:10;21.60;59.80
33863;DHT22;20158;51.436;-2.742;2022-08-21T08:42:36;21.70;59.70
33863;DHT22;20158;51.436;-2.742;2022-08-21T08:45:12;21.70;59.50
33863;DHT22;20158;51.436;-2.742;2022-08-21T08:47:45;21.80;59.60
33863;DHT22;20158;51.436;-2.742;2022-08-21T08:50:24;21.90;59.60
33863;DHT22;20158;51.436;-2.742;2022-08-21T08:53:07;22.00;59.70
33863;DHT22;20158;51.436;-2.742;2022-08-21T08:55:40;22.10;59.70
33863;DHT22;20158;51.436;-2.742;2022-08-21T08:58:09;22.10;60.10
33863;DHT22;20158;51.436;-2.742;2022-08-21T09:00:39;22.30;59.70
33863;DHT22;20158;51.436;-2.742;2022-08-21T09:03:05;22.40;59.70
33863;DHT22;20158;51.436;-2.742;2022-08-21T09:05:42;22.50;59.60
33863;DHT22;20158;51.436;-2.742;2022-08-21T09:11:04;22.80;59.50
33863;DHT22;20158;51.436;-2.742;2022-08-21T09:21:38;23.50;59.00
33863;DHT22;20158;51.436;-2.742;2022-08-21T09:24:32;23.60;58.60
33863;DHT22;20158;51.436;-2.742;2022-08-21T09:27:04;23.80;58.30
33863;DHT22;20158;51.436;-2.742;2022-08-21T09:29:38;24.00;58.30
33863;DHT22;20158;51.436;-2.742;2022-08-21T09:32:09;24.20;58.20
33863;DHT22;20158;51.436;-2.742;2022-08-21T09:34:35;24.40;58.20
33863;DHT22;20158;51.436;-2.742;2022-08-21T09:37:01;24.50;58.10
33863;DHT22;20158;51.436;-2.742;2022-08-21T09:39:37;24.60;57.90
33863;DHT22;20158;51.436;-2.742;2022-08-21T09:42:06;24.60;57.40
33863;DHT22;20158;51.436;-2.742;2022-08-21T09:44:39;24.70;57.20
33863;DHT22;20158;51.436;-2.742;2022-08-21T09:47:11;24.70;56.80
33863;DHT22;20158;51.436;-2.742;2022-08-21T09:49:41;24.70;56.70
33863;DHT22;20158;51.436;-2.742;2022-08-21T09:52:26;24.70;56.60
33863;DHT22;20158;51.436;-2.742;2022-08-21T09:54:55;24.60;56.00
33863;DHT22;20158;51.436;-2.742;2022-08-21T09:57:27;24.60;56.80
33863;DHT22;20158;51.436;-2.742;2022-08-21T10:00:19;24.50;56.60
33863;DHT22;20158;51.436;-2.742;2022-08-21T10:02:46;24.50;55.70
33863;DHT22;20158;51.436;-2.742;2022-08-21T10:05:17;24.50;55.70
33863;DHT22;20158;51.436;-2.742;2022-08-21T10:07:43;24.50;55.60
33863;DHT22;20158;51.436;-2.742;2022-08-21T10:10:26;24.50;55.50
33863;DHT22;20158;51.436;-2.742;2022-08-21T10:15:48;24.50;54.90
33863;DHT22;20158;51.436;-2.742;2022-08-21T10:21:06;24.60;54.80
33863;DHT22;20158;51.436;-2.742;2022-08-21T10:23:38;24.70;54.90
33863;DHT22;20158;51.436;-2.742;2022-08-21T10:26:13;24.80;55.10
33863;DHT22;20158;51.436;-2.742;2022-08-21T10:28:55;24.90;55.00
33863;DHT22;20158;51.436;-2.742;2022-08-21T10:33:56;25.00;54.80
33863;DHT22;20158;51.436;-2.742;2022-08-21T10:36:37;25.10;54.60
33863;DHT22;20158;51.436;-2.742;2022-08-21T10:39:24;25.10;54.40
33863;DHT22;20158;51.436;-2.742;2022-08-21T10:42:20;25.10;54.00
33863;DHT22;20158;51.436;-2.742;2022-08-21T10:45:20;25.20;54.10
33863;DHT22;20158;51.436;-2.742;2022-08-21T10:47:53;25.20;53.90
33863;DHT22;20158;51.436;-2.742;2022-08-21T10:50:30;25.40;54.00
33863;DHT22;20158;51.436;-2.742;2022-08-21T10:53:28;25.50;53.50
33863;DHT22;20158;51.436;-2.742;2022-08-21T10:56:11;25.70;53.30
33863;DHT22;20158;51.436;-2.742;2022-08-21T10:58:45;26.00;53.00
33863;DHT22;20158;51.436;-2.742;2022-08-21T11:01:17;26.30;52.70
33863;DHT22;20158;51.436;-2.742;2022-08-21T11:03:53;26.40;52.20
33863;DHT22;20158;51.436;-2.742;2022-08-21T11:06:25;26.70;51.90
33863;DHT22;20158;51.436;-2.742;2022-08-21T11:09:30;26.90;51.50
33863;DHT22;20158;51.436;-2.742;2022-08-21T11:12:05;27.10;51.00
33863;DHT22;20158;51.436;-2.742;2022-08-21T11:17:31;27.60;50.00
33863;DHT22;20158;51.436;-2.742;2022-08-21T11:20:21;27.70;50.00
33863;DHT22;20158;51.436;-2.742;2022-08-21T11:22:53;27.60;49.60
33863;DHT22;20158;51.436;-2.742;2022-08-21T11:30:18;27.50;49.50
33863;DHT22;20158;51.436;-2.742;2022-08-21T11:45:59;27.50;48.60
33863;DHT22;20158;51.436;-2.742;2022-08-21T11:48:39;27.50;48.50
33863;DHT22;20158;51.436;-2.742;2022-08-21T11:51:46;27.40;48.50
33863;DHT22;20158;51.436;-2.742;2022-08-21T11:54:21;27.40;48.20
33863;DHT22;20158;51.436;-2.742;2022-08-21T11:56:55;27.30;48.30
33863;DHT22;20158;51.436;-2.742;2022-08-21T11:59:36;27.40;48.20
33863;DHT22;20158;51.436;-2.742;2022-08-21T12:02:11;27.40;47.80
33863;DHT22;20158;51.436;-2.742;2022-08-21T12:04:52;27.30;47.80
33863;DHT22;20158;51.436;-2.742;2022-08-21T12:10:01;27.20;47.80
33863;DHT22;20158;51.436;-2.742;2022-08-21T12:12:32;27.20;47.90
33863;DHT22;20158;51.436;-2.742;2022-08-21T12:23:26;27.20;47.60
33863;DHT22;20158;51.436;-2.742;2022-08-21T12:26:11;27.10;47.60
33863;DHT22;20158;51.436;-2.742;2022-08-21T12:28:40;27.10;47.60
33863;DHT22;20158;51.436;-2.742;2022-08-21T12:31:21;27.20;47.80
33863;DHT22;20158;51.436;-2.742;2022-08-21T12:34:09;27.20;47.60
33863;DHT22;20158;51.436;-2.742;2022-08-21T12:36:49;27.20;47.40
33863;DHT22;20158;51.436;-2.742;2022-08-21T12:39:27;27.30;48.10
33863;DHT22;20158;51.436;-2.742;2022-08-21T12:42:17;27.40;47.60
33863;DHT22;20158;51.436;-2.742;2022-08-21T12:44:57;27.50;47.50
33863;DHT22;20158;51.436;-2.742;2022-08-21T12:47:48;27.60;48.10
33863;DHT22;20158;51.436;-2.742;2022-08-21T12:50:21;27.70;47.30
33863;DHT22;20158;51.436;-2.742;2022-08-21T12:53:04;27.80;47.20
33863;DHT22;20158;51.436;-2.742;2022-08-21T12:55:33;28.00;47.00
33863;DHT22;20158;51.436;-2.742;2022-08-21T12:58:00;28.20;47.00
33863;DHT22;20158;51.436;-2.742;2022-08-21T13:00:28;28.30;46.80
33863;DHT22;20158;51.436;-2.742;2022-08-21T13:02:55;28.40;46.40
33863;DHT22;20158;51.436;-2.742;2022-08-21T13:07:54;28.50;46.20
33863;DHT22;20158;51.436;-2.742;2022-08-21T13:10:28;28.50;46.20
33863;DHT22;20158;51.436;-2.742;2022-08-21T13:12:57;28.50;46.00
33863;DHT22;20158;51.436;-2.742;2022-08-21T13:15:36;28.60;46.00
33863;DHT22;20158;51.436;-2.742;2022-08-21T13:18:04;28.70;45.90
33863;DHT22;20158;51.436;-2.742;2022-08-21T13:20:36;28.80;46.00
33863;DHT22;20158;51.436;-2.742;2022-08-21T13:23:22;28.90;45.70
33863;DHT22;20158;51.436;-2.742;2022-08-21T13:25:48;29.10;45.70
33863;DHT22;20158;51.436;-2.742;2022-08-21T13:28:15;29.20;45.50
33863;DHT22;20158;51.436;-2.742;2022-08-21T13:31:00;29.30;45.50
33863;DHT22;20158;51.436;-2.742;2022-08-21T13:33:30;29.30;45.40
33863;DHT22;20158;51.436;-2.742;2022-08-21T13:38:32;29.20;45.40
33863;DHT22;20158;51.436;-2.742;2022-08-21T13:41:01;29.10;45.40
33863;DHT22;20158;51.436;-2.742;2022-08-21T13:43:32;29.10;45.70
33863;DHT22;20158;51.436;-2.742;2022-08-21T13:46:00;29.00;45.70
33863;DHT22;20158;51.436;-2.742;2022-08-21T13:48:30;29.00;45.60
33863;DHT22;20158;51.436;-2.742;2022-08-21T13:51:00;29.00;45.50
33863;DHT22;20158;51.436;-2.742;2022-08-21T13:56:06;29.30;45.20
33863;DHT22;20158;51.436;-2.742;2022-08-21T13:58:45;29.50;45.20
33863;DHT22;20158;51.436;-2.742;2022-08-21T14:01:21;29.60;44.80
33863;DHT22;20158;51.436;-2.742;2022-08-21T14:03:49;29.80;44.60
33863;DHT22;20158;51.436;-2.742;2022-08-21T14:06:22;29.80;44.50
33863;DHT22;20158;51.436;-2.742;2022-08-21T14:08:52;29.90;44.70
33863;DHT22;20158;51.436;-2.742;2022-08-21T14:11:19;29.80;44.90
33863;DHT22;20158;51.436;-2.742;2022-08-21T14:13:49;29.70;45.10
33863;DHT22;20158;51.436;-2.742;2022-08-21T14:16:28;29.60;45.40
33863;DHT22;20158;51.436;-2.742;2022-08-21T14:21:34;29.50;45.80
33863;DHT22;20158;51.436;-2.742;2022-08-21T14:24:10;29.60;45.80
33863;DHT22;20158;51.436;-2.742;2022-08-21T14:26:49;29.80;45.70
33863;DHT22;20158;51.436;-2.742;2022-08-21T14:29:17;30.00;45.60
33863;DHT22;20158;51.436;-2.742;2022-08-21T14:31:53;30.30;45.50
33863;DHT22;20158;51.436;-2.742;2022-08-21T14:34:19;30.50;45.00
33863;DHT22;20158;51.436;-2.742;2022-08-21T14:36:47;30.70;44.90
33863;DHT22;20158;51.436;-2.742;2022-08-21T14:39:14;30.80;44.70
33863;DHT22;20158;51.436;-2.742;2022-08-21T14:41:40;31.00;44.40
33863;DHT22;20158;51.436;-2.742;2022-08-21T14:44:08;31.10;44.10
33863;DHT22;20158;51.436;-2.742;2022-08-21T14:46:35;31.30;43.90
33863;DHT22;20158;51.436;-2.742;2022-08-21T14:49:04;31.40;43.70
33863;DHT22;20158;51.436;-2.742;2022-08-21T14:51:30;31.50;43.40
33863;DHT22;20158;51.436;-2.742;2022-08-21T14:53:56;31.60;43.30
33863;DHT22;20158;51.436;-2.742;2022-08-21T14:56:23;31.60;43.10
33863;DHT22;20158;51.436;-2.742;2022-08-21T14:58:52;31.60;42.90
33863;DHT22;20158;51.436;-2.742;2022-08-21T15:01:21;31.70;42.80
33863;DHT22;20158;51.436;-2.742;2022-08-21T15:03:47;31.70;42.70
33863;DHT22;20158;51.436;-2.742;2022-08-21T15:06:15;31.70;42.60
33863;DHT22;20158;51.436;-2.742;2022-08-21T15:08:41;31.70;42.50
33863;DHT22;20158;51.436;-2.742;2022-08-21T15:11:12;31.70;42.40
33863;DHT22;20158;51.436;-2.742;2022-08-21T15:13:43;31.70;42.30
33863;DHT22;20158;51.436;-2.742;2022-08-21T15:16:11;31.70;42.30
33863;DHT22;20158;51.436;-2.742;2022-08-21T15:18:38;31.60;42.20
33863;DHT22;20158;51.436;-2.742;2022-08-21T15:21:08;31.50;42.30
33863;DHT22;20158;51.436;-2.742;2022-08-21T15:23:34;31.40;42.20
33863;DHT22;20158;51.436;-2.742;2022-08-21T15:26:00;31.50;42.20
33863;DHT22;20158;51.436;-2.742;2022-08-21T15:28:26;31.40;42.10
33863;DHT22;20158;51.436;-2.742;2022-08-21T15:30:53;31.40;42.20
33863;DHT22;20158;51.436;-2.742;2022-08-21T15:33:20;31.40;42.40
33863;DHT22;20158;51.436;-2.742;2022-08-21T15:35:47;31.40;42.40
33863;DHT22;20158;51.436;-2.742;2022-08-21T15:38:14;31.60;42.50
33863;DHT22;20158;51.436;-2.742;2022-08-21T15:40:41;31.90;42.30
33863;DHT22;20158;51.436;-2.742;2022-08-21T15:43:23;32.20;41.80
33863;DHT22;20158;51.436;-2.742;2022-08-21T15:45:50;32.60;41.20
33863;DHT22;20158;51.436;-2.742;2022-08-21T15:48:16;32.80;40.80
33863;DHT22;20158;51.436;-2.742;2022-08-21T15:50:42;32.80;40.50
33863;DHT22;20158;51.436;-2.742;2022-08-21T15:53:09;32.80;40.50
33863;DHT22;20158;51.436;-2.742;2022-08-21T15:55:38;32.90;40.30
33863;DHT22;20158;51.436;-2.742;2022-08-21T15:58:05;33.00;40.50
33863;DHT22;20158;51.436;-2.742;2022-08-21T16:00:33;33.00;39.90
33863;DHT22;20158;51.436;-2.742;2022-08-21T16:03:00;33.00;39.80
33863;DHT22;20158;51.436;-2.742;2022-08-21T16:05:28;32.80;39.90
33863;DHT22;20158;51.436;-2.742;2022-08-21T16:07:54;32.70;40.00
33863;DHT22;20158;51.436;-2.742;2022-08-21T16:10:22;32.60;40.00
33863;DHT22;20158;51.436;-2.742;2022-08-21T16:12:56;32.50;39.90
33863;DHT22;20158;51.436;-2.742;2022-08-21T16:15:23;32.40;40.00
33863;DHT22;20158;51.436;-2.742;2022-08-21T16:17:51;32.30;40.20
33863;DHT22;20158;51.436;-2.742;2022-08-21T16:20:23;32.20;40.20
33863;DHT22;20158;51.436;-2.742;2022-08-21T16:22:51;32.00;40.20
33863;DHT22;20158;51.436;-2.742;2022-08-21T16:25:17;31.80;40.50
33863;DHT22;20158;51.436;-2.742;2022-08-21T16:27:48;31.60;40.70
33863;DHT22;20158;51.436;-2.742;2022-08-21T16:30:16;31.30;40.70
33863;DHT22;20158;51.436;-2.742;2022-08-21T16:32:43;31.10;41.00
33863;DHT22;20158;51.436;-2.742;2022-08-21T16:35:13;30.80;41.40